sensor_id;sensor_type;location;lat;lon;timestamp;temperature;humidity
40023;DHT22;25713;-35.352;149.036;2023-07-31T00:00:29;13.00;80.60
40023;DHT22;25713;-35.352;149.036;2023-07-31T00:02:58;13.00;80.10
40023;DHT22;25713;-35.352;149.036;2023-07-31T00:05:28;13.10;80.50
40023;DHT22;25713;-35.352;149.036;2023-07-31T00:08:01;13.10;81.40
40023;DHT22;25713;-35.352;149.036;2023-07-31T00:10:31;13.10;81.00
40023;DHT22;25713;-35.352;149.036;2023-07-31T00:13:00;13.10;80.20
40023;DHT22;25713;-35.352;149.036;2023-07-31T00:15:30;13.10;81.30
40023;DHT22;25713;-35.352;149.036;2023-07-31T00:18:00;13.10;80.60
40023;DHT22;25713;-35.352;149.036;2023-07-31T00:20:29;13.20;80.20
40023;DHT22;25713;-35.352;149.036;2023-07-31T00:23:01;13.30;79.10
40023;DHT22;25713;-35.352;149.036;2023-07-31T00:25:30;13.20;77.30
40023;DHT22;25713;-35.352;149.036;2023-07-31T00:27:59;13.20;78.30
40023;DHT22;25713;-35.352;149.036;2023-07-31T00:30:29;13.20;78.10
40023;DHT22;25713;-35.352;149.036;2023-07-31T00:32:58;13.20;76.80
40023;DHT22;25713;-35.352;149.036;2023-07-31T00:35:28;13.30;77.10
40023;DHT22;25713;-35.352;149.036;2023-07-31T00:38:02;13.40;76.10
40023;DHT22;25713;-35.352;149.036;2023-07-31T00:40:36;13.40;74.70
40023;DHT22;25713;-35.352;149.036;2023-07-31T00:43:05;13.40;75.30
40023;DHT22;25713;-35.352;149.036;2023-07-31T00:45:35;13.40;74.90
40023;DHT22;25713;-35.352;149.036;2023-07-31T00:48:05;13.40;76.00
40023;DHT22;25713;-35.352;149.036;2023-07-31T00:50:35;13.40;75.20
40023;DHT22;25713;-35.352;149.036;2023-07-31T00:53:08;13.50;77.60
40023;DHT22;25713;-35.352;149.036;2023-07-31T00:55:38;13.60;78.70
40023;DHT22;25713;-35.352;149.036;2023-07-31T00:58:08;13.60;78.80
40023;DHT22;25713;-35.352;149.036;2023-07-31T01:00:38;13.60;79.80
40023;DHT22;25713;-35.352;149.036;2023-07-31T01:03:08;13.70;78.80
40023;DHT22;25713;-35.352;149.036;2023-07-31T01:05:46;13.70;78.90
40023;DHT22;25713;-35.352;149.036;2023-07-31T01:08:27;13.80;78.10
40023;DHT22;25713;-35.352;149.036;2023-07-31T01:11:07;13.80;75.90
40023;DHT22;25713;-35.352;149.036;2023-07-31T01:13:39;13.80;73.80
40023;DHT22;25713;-35.352;149.036;2023-07-31T01:16:08;13.80;74.90
40023;DHT22;25713;-35.352;149.036;2023-07-31T01:18:39;13.90;72.20
40023;DHT22;25713;-35.352;149.036;2023-07-31T01:21:30;13.90;72.10
40023;DHT22;25713;-35.352;149.036;2023-07-31T01:24:28;13.90;72.80
40023;DHT22;25713;-35.352;149.036;2023-07-31T01:27:06;14.00;72.90
40023;DHT22;25713;-35.352;149.036;2023-07-31T01:29:42;14.10;71.70
40023;DHT22;25713;-35.352;149.036;2023-07-31T01:32:13;14.10;71.00
40023;DHT22;25713;-35.352;149.036;2023-07-31T01:34:45;14.20;73.60
40023;DHT22;25713;-35.352;149.036;2023-07-31T01:37:15;14.20;74.70
40023;DHT22;25713;-35.352;149.036;2023-07-31T01:39:45;14.30;72.90
40023;DHT22;25713;-35.352;149.036;2023-07-31T01:42:18;14.30;74.10
40023;DHT22;25713;-35.352;149.036;2023-07-31T01:44:46;14.30;74.60
40023;DHT22;25713;-35.352;149.036;2023-07-31T01:47:16;14.30;73.40
40023;DHT22;25713;-35.352;149.036;2023-07-31T01:49:46;14.40;72.00
40023;DHT22;25713;-35.352;149.036;2023-07-31T01:52:16;14.40;70.30
40023;DHT22;25713;-35.352;149.036;2023-07-31T01:54:45;14.30;71.40
40023;DHT22;25713;-35.352;149.036;2023-07-31T01:57:17;14.30;70.50
40023;DHT22;25713;-35.352;149.036;2023-07-31T01:59:46;14.30;71.00
40023;DHT22;25713;-35.352;149.036;2023-07-31T02:02:16;14.30;71.50
40023;DHT22;25713;-35.352;149.036;2023-07-31T02:04:46;14.40;72.50
40023;DHT22;25713;-35.352;149.036;2023-07-31T02:07:16;14.50;70.70
40023;DHT22;25713;-35.352;149.036;2023-07-31T02:09:45;14.50;70.20
40023;DHT22;25713;-35.352;149.036;2023-07-31T02:12:18;14.50;71.70
40023;DHT22;25713;-35.352;149.036;2023-07-31T02:14:48;14.50;70.80
40023;DHT22;25713;-35.352;149.036;2023-07-31T02:17:17;14.50;70.60
40023;DHT22;25713;-35.352;149.036;2023-07-31T02:19:47;14.50;70.30
40023;DHT22;25713;-35.352;149.036;2023-07-31T02:22:17;14.60;70.90
40023;DHT22;25713;-35.352;149.036;2023-07-31T02:24:46;14.60;71.50
40023;DHT22;25713;-35.352;149.036;2023-07-31T02:27:18;14.60;70.50
40023;DHT22;25713;-35.352;149.036;2023-07-31T02:29:48;14.60;68.70
40023;DHT22;25713;-35.352;149.036;2023-07-31T02:32:17;14.60;69.50
40023;DHT22;25713;-35.352;149.036;2023-07-31T02:34:47;14.70;70.20
40023;DHT22;25713;-35.352;149.036;2023-07-31T02:37:17;14.70;70.90
40023;DHT22;25713;-35.352;149.036;2023-07-31T02:39:47;14.80;70.20
40023;DHT22;25713;-35.352;149.036;2023-07-31T02:42:18;14.60;71.10
40023;DHT22;25713;-35.352;149.036;2023-07-31T02:44:48;14.70;70.10
40023;DHT22;25713;-35.352;149.036;2023-07-31T02:47:18;14.70;72.00
40023;DHT22;25713;-35.352;149.036;2023-07-31T02:49:47;14.70;71.60
40023;DHT22;25713;-35.352;149.036;2023-07-31T02:52:17;14.80;70.00
40023;DHT22;25713;-35.352;149.036;2023-07-31T02:54:46;14.80;71.50
40023;DHT22;25713;-35.352;149.036;2023-07-31T02:57:18;14.90;71.00
40023;DHT22;25713;-35.352;149.036;2023-07-31T02:59:48;15.00;70.10
40023;DHT22;25713;-35.352;149.036;2023-07-31T03:02:18;15.00;70.20
40023;DHT22;25713;-35.352;149.036;2023-07-31T03:04:48;14.90;70.50
40023;DHT22;25713;-35.352;149.036;2023-07-31T03:07:18;15.00;70.20
40023;DHT22;25713;-35.352;149.036;2023-07-31T03:09:47;15.00;68.70
40023;DHT22;25713;-35.352;149.036;2023-07-31T03:12:20;14.80;69.40
40023;DHT22;25713;-35.352;149.036;2023-07-31T03:14:51;14.80;70.30
40023;DHT22;25713;-35.352;149.036;2023-07-31T03:17:20;14.70;68.80
40023;DHT22;25713;-35.352;149.036;2023-07-31T03:19:50;14.70;70.20
40023;DHT22;25713;-35.352;149.036;2023-07-31T03:22:20;14.70;71.30
40023;DHT22;25713;-35.352;149.036;2023-07-31T03:24:50;14.80;70.20
40023;DHT22;25713;-35.352;149.036;2023-07-31T03:27:22;14.80;70.80
40023;DHT22;25713;-35.352;149.036;2023-07-31T03:29:51;14.80;70.00
40023;DHT22;25713;-35.352;149.036;2023-07-31T03:32:21;14.90;70.00
40023;DHT22;25713;-35.352;149.036;2023-07-31T03:34:51;14.90;69.50
40023;DHT22;25713;-35.352;149.036;2023-07-31T03:37:20;14.80;69.10
40023;DHT22;25713;-35.352;149.036;2023-07-31T03:39:50;14.80;69.10
40023;DHT22;25713;-35.352;149.036;2023-07-31T03:42:21;14.80;70.10
40023;DHT22;25713;-35.352;149.036;2023-07-31T03:44:53;14.80;70.50
40023;DHT22;25713;-35.352;149.036;2023-07-31T03:47:23;14.80;68.20
40023;DHT22;25713;-35.352;149.036;2023-07-31T03:49:54;14.80;68.00
40023;DHT22;25713;-35.352;149.036;2023-07-31T03:52:24;14.80;69.80
40023;DHT22;25713;-35.352;149.036;2023-07-31T03:54:54;14.80;70.00
40023;DHT22;25713;-35.352;149.036;2023-07-31T03:57:26;14.80;69.30
40023;DHT22;25713;-35.352;149.036;2023-07-31T03:59:56;14.80;68.90
40023;DHT22;25713;-35.352;149.036;2023-07-31T04:02:25;14.80;69.30
40023;DHT22;25713;-35.352;149.036;2023-07-31T04:04:54;14.80;70.00
40023;DHT22;25713;-35.352;149.036;2023-07-31T04:07:24;14.90;69.60
40023;DHT22;25713;-35.352;149.036;2023-07-31T04:09:53;14.80;70.00
40023;DHT22;25713;-35.352;149.036;2023-07-31T04:12:25;14.90;69.50
40023;DHT22;25713;-35.352;149.036;2023-07-31T04:14:55;14.90;69.40
40023;DHT22;25713;-35.352;149.036;2023-07-31T04:17:24;14.90;69.40
40023;DHT22;25713;-35.352;149.036;2023-07-31T04:19:54;14.90;70.20
40023;DHT22;25713;-35.352;149.036;2023-07-31T04:22:23;14.70;70.40
40023;DHT22;25713;-35.352;149.036;2023-07-31T04:24:53;14.80;70.10
40023;DHT22;25713;-35.352;149.036;2023-07-31T04:27:25;14.80;70.10
40023;DHT22;25713;-35.352;149.036;2023-07-31T04:29:54;14.70;70.90
40023;DHT22;25713;-35.352;149.036;2023-07-31T04:32:24;14.80;70.20
40023;DHT22;25713;-35.352;149.036;2023-07-31T04:34:54;14.70;70.30
40023;DHT22;25713;-35.352;149.036;2023-07-31T04:37:24;14.70;70.10
40023;DHT22;25713;-35.352;149.036;2023-07-31T04:39:53;14.70;70.70
40023;DHT22;25713;-35.352;149.036;2023-07-31T04:42:25;14.70;69.50
40023;DHT22;25713;-35.352;149.036;2023-07-31T04:44:54;14.70;71.90
40023;DHT22;25713;-35.352;149.036;2023-07-31T04:47:24;14.70;68.60
40023;DHT22;25713;-35.352;149.036;2023-07-31T04:49:53;14.60;71.10
40023;DHT22;25713;-35.352;149.036;2023-07-31T04:52:23;14.70;70.20
40023;DHT22;25713;-35.352;149.036;2023-07-31T04:54:52;14.60;70.80
40023;DHT22;25713;-35.352;149.036;2023-07-31T04:57:22;14.70;70.30
40023;DHT22;25713;-35.352;149.036;2023-07-31T04:59:53;14.60;70.60
40023;DHT22;25713;-35.352;149.036;2023-07-31T05:02:23;14.70;71.30
40023;DHT22;25713;-35.352;149.036;2023-07-31T05:04:52;14.70;71.20
40023;DHT22;25713;-35.352;149.036;2023-07-31T05:07:22;14.70;71.20
40023;DHT22;25713;-35.352;149.036;2023-07-31T05:09:52;14.60;70.80
40023;DHT22;25713;-35.352;149.036;2023-07-31T05:12:21;14.60;71.10
40023;DHT22;25713;-35.352;149.036;2023-07-31T05:14:53;14.60;70.70
40023;DHT22;25713;-35.352;149.036;2023-07-31T05:17:22;14.60;70.20
40023;DHT22;25713;-35.352;149.036;2023-07-31T05:19:52;14.60;70.70
40023;DHT22;25713;-35.352;149.036;2023-07-31T05:22:21;14.70;71.70
40023;DHT22;25713;-35.352;149.036;2023-07-31T05:24:51;14.70;71.10
40023;DHT22;25713;-35.352;149.036;2023-07-31T05:27:21;14.70;70.50
40023;DHT22;25713;-35.352;149.036;2023-07-31T05:29:52;14.70;69.60
40023;DHT22;25713;-35.352;149.036;2023-07-31T05:32:21;14.60;70.30
40023;DHT22;25713;-35.352;149.036;2023-07-31T05:34:52;14.60;69.70
40023;DHT22;25713;-35.352;149.036;2023-07-31T05:37:22;14.50;70.70
40023;DHT22;25713;-35.352;149.036;2023-07-31T05:39:52;14.60;71.80
40023;DHT22;25713;-35.352;149.036;2023-07-31T05:42:21;14.60;71.50
40023;DHT22;25713;-35.352;149.036;2023-07-31T05:44:53;14.60;70.50
40023;DHT22;25713;-35.352;149.036;2023-07-31T05:47:23;14.60;70.70
40023;DHT22;25713;-35.352;149.036;2023-07-31T05:49:52;14.60;70.90
40023;DHT22;25713;-35.352;149.036;2023-07-31T05:52:22;14.60;70.50
40023;DHT22;25713;-35.352;149.036;2023-07-31T05:54:52;14.60;70.90
40023;DHT22;25713;-35.352;149.036;2023-07-31T05:57:22;14.50;71.20
40023;DHT22;25713;-35.352;149.036;2023-07-31T05:59:53;14.50;72.40
40023;DHT22;25713;-35.352;149.036;2023-07-31T06:02:23;14.40;70.20
40023;DHT22;25713;-35.352;149.036;2023-07-31T06:04:52;14.40;70.60
40023;DHT22;25713;-35.352;149.036;2023-07-31T06:07:22;14.40;71.60
40023;DHT22;25713;-35.352;149.036;2023-07-31T06:09:52;14.30;71.60
40023;DHT22;25713;-35.352;149.036;2023-07-31T06:12:21;14.30;70.60
40023;DHT22;25713;-35.352;149.036;2023-07-31T06:14:51;14.30;70.30
40023;DHT22;25713;-35.352;149.036;2023-07-31T06:17:23;14.20;70.00
40023;DHT22;25713;-35.352;149.036;2023-07-31T06:19:53;14.10;71.40
40023;DHT22;25713;-35.352;149.036;2023-07-31T06:22:22;14.20;71.20
40023;DHT22;25713;-35.352;149.036;2023-07-31T06:24:51;14.20;71.50
40023;DHT22;25713;-35.352;149.036;2023-07-31T06:27:21;14.10;70.80
40023;DHT22;25713;-35.352;149.036;2023-07-31T06:29:51;14.20;71.60
40023;DHT22;25713;-35.352;149.036;2023-07-31T06:32:22;14.20;72.10
40023;DHT22;25713;-35.352;149.036;2023-07-31T06:34:51;14.20;71.70
40023;DHT22;25713;-35.352;149.036;2023-07-31T06:37:21;14.10;72.50
40023;DHT22;25713;-35.352;149.036;2023-07-31T06:39:51;14.20;72.70
40023;DHT22;25713;-35.352;149.036;2023-07-31T06:42:21;14.10;72.70
40023;DHT22;25713;-35.352;149.036;2023-07-31T06:44:50;14.20;72.50
40023;DHT22;25713;-35.352;149.036;2023-07-31T06:47:22;14.10;72.80
40023;DHT22;25713;-35.352;149.036;2023-07-31T06:49:51;14.10;73.20
40023;DHT22;25713;-35.352;149.036;2023-07-31T06:52:20;14.10;73.20
40023;DHT22;25713;-35.352;149.036;2023-07-31T06:55:01;14.00;72.30
40023;DHT22;25713;-35.352;149.036;2023-07-31T06:57:31;14.00;73.20
40023;DHT22;25713;-35.352;149.036;2023-07-31T07:00:01;14.00;73.40
40023;DHT22;25713;-35.352;149.036;2023-07-31T07:02:33;14.00;73.00
40023;DHT22;25713;-35.352;149.036;2023-07-31T07:05:03;14.10;73.20
40023;DHT22;25713;-35.352;149.036;2023-07-31T07:07:32;14.10;73.20
40023;DHT22;25713;-35.352;149.036;2023-07-31T07:10:02;14.10;73.90
40023;DHT22;25713;-35.352;149.036;2023-07-31T07:12:32;14.10;73.40
40023;DHT22;25713;-35.352;149.036;2023-07-31T07:15:02;14.20;73.70
40023;DHT22;25713;-35.352;149.036;2023-07-31T07:17:35;14.20;74.90
40023;DHT22;25713;-35.352;149.036;2023-07-31T07:20:05;14.20;74.50
40023;DHT22;25713;-35.352;149.036;2023-07-31T07:22:35;14.20;72.80
40023;DHT22;25713;-35.352;149.036;2023-07-31T07:25:05;14.20;74.20
40023;DHT22;25713;-35.352;149.036;2023-07-31T07:27:34;14.10;73.60
40023;DHT22;25713;-35.352;149.036;2023-07-31T07:30:05;14.10;72.90
40023;DHT22;25713;-35.352;149.036;2023-07-31T07:32:36;14.00;72.20
40023;DHT22;25713;-35.352;149.036;2023-07-31T07:35:07;13.90;72.20
40023;DHT22;25713;-35.352;149.036;2023-07-31T07:37:36;13.90;72.00
40023;DHT22;25713;-35.352;149.036;2023-07-31T07:40:06;13.80;71.90
40023;DHT22;25713;-35.352;149.036;2023-07-31T07:42:37;13.70;70.60
40023;DHT22;25713;-35.352;149.036;2023-07-31T07:45:07;13.70;71.70
40023;DHT22;25713;-35.352;149.036;2023-07-31T07:47:40;13.70;71.80
40023;DHT22;25713;-35.352;149.036;2023-07-31T07:50:10;13.60;72.10
40023;DHT22;25713;-35.352;149.036;2023-07-31T07:52:40;13.70;72.00
40023;DHT22;25713;-35.352;149.036;2023-07-31T07:55:10;13.70;71.90
40023;DHT22;25713;-35.352;149.036;2023-07-31T07:57:39;13.70;72.20
40023;DHT22;25713;-35.352;149.036;2023-07-31T08:00:09;13.80;72.00
40023;DHT22;25713;-35.352;149.036;2023-07-31T08:02:48;13.80;72.60
40023;DHT22;25713;-35.352;149.036;2023-07-31T08:05:18;13.80;72.10
40023;DHT22;25713;-35.352;149.036;2023-07-31T08:07:47;13.70;71.70
40023;DHT22;25713;-35.352;149.036;2023-07-31T08:10:17;13.60;71.70
40023;DHT22;25713;-35.352;149.036;2023-07-31T08:12:46;13.50;71.80
40023;DHT22;25713;-35.352;149.036;2023-07-31T08:15:16;13.50;72.70
40023;DHT22;25713;-35.352;149.036;2023-07-31T08:17:48;13.40;72.50
40023;DHT22;25713;-35.352;149.036;2023-07-31T08:20:17;13.30;72.50
40023;DHT22;25713;-35.352;149.036;2023-07-31T08:22:47;13.20;72.10
40023;DHT22;25713;-35.352;149.036;2023-07-31T08:25:16;13.20;73.50
40023;DHT22;25713;-35.352;149.036;2023-07-31T08:27:46;13.30;73.30
40023;DHT22;25713;-35.352;149.036;2023-07-31T08:30:16;13.30;74.10
40023;DHT22;25713;-35.352;149.036;2023-07-31T08:32:49;13.30;75.00
40023;DHT22;25713;-35.352;149.036;2023-07-31T08:35:19;13.30;74.20
40023;DHT22;25713;-35.352;149.036;2023-07-31T08:37:48;13.30;73.20
40023;DHT22;25713;-35.352;149.036;2023-07-31T08:40:18;13.30;73.50
40023;DHT22;25713;-35.352;149.036;2023-07-31T08:42:48;13.30;73.40
40023;DHT22;25713;-35.352;149.036;2023-07-31T08:45:19;13.40;73.20
40023;DHT22;25713;-35.352;149.036;2023-07-31T08:50:48;13.40;72.80
40023;DHT22;25713;-35.352;149.036;2023-07-31T08:53:18;13.50;72.70
40023;DHT22;25713;-35.352;149.036;2023-07-31T08:55:47;13.50;72.90
40023;DHT22;25713;-35.352;149.036;2023-07-31T08:58:18;13.60;72.30
40023;DHT22;25713;-35.352;149.036;2023-07-31T09:00:48;13.60;72.70
40023;DHT22;25713;-35.352;149.036;2023-07-31T09:03:19;13.60;72.30
40023;DHT22;25713;-35.352;149.036;2023-07-31T09:05:53;13.60;72.90
40023;DHT22;25713;-35.352;149.036;2023-07-31T09:08:24;13.60;73.20
40023;DHT22;25713;-35.352;149.036;2023-07-31T09:11:00;13.60;73.20
40023;DHT22;25713;-35.352;149.036;2023-07-31T09:13:31;13.60;73.20
40023;DHT22;25713;-35.352;149.036;2023-07-31T09:16:01;13.60;73.10
40023;DHT22;25713;-35.352;149.036;2023-07-31T09:18:30;13.60;72.50
40023;DHT22;25713;-35.352;149.036;2023-07-31T09:21:05;13.60;73.30
40023;DHT22;25713;-35.352;149.036;2023-07-31T09:23:45;13.60;72.90
40023;DHT22;25713;-35.352;149.036;2023-07-31T09:26:30;13.60;73.40
40023;DHT22;25713;-35.352;149.036;2023-07-31T09:28:59;13.60;73.60
40023;DHT22;25713;-35.352;149.036;2023-07-31T09:31:40;13.60;73.70
40023;DHT22;25713;-35.352;149.036;2023-07-31T09:34:09;13.60;73.50
40023;DHT22;25713;-35.352;149.036;2023-07-31T09:36:44;13.60;73.60
40023;DHT22;25713;-35.352;149.036;2023-07-31T09:39:15;13.60;73.60
40023;DHT22;25713;-35.352;149.036;2023-07-31T09:41:48;13.60;73.70
40023;DHT22;25713;-35.352;149.036;2023-07-31T09:44:22;13.50;72.60
40023;DHT22;25713;-35.352;149.036;2023-07-31T09:47:22;13.50;72.10
40023;DHT22;25713;-35.352;149.036;2023-07-31T09:49:51;13.50;72.90
40023;DHT22;25713;-35.352;149.036;2023-07-31T09:52:23;13.50;73.50
40023;DHT22;25713;-35.352;149.036;2023-07-31T09:54:55;13.50;74.00
40023;DHT22;25713;-35.352;149.036;2023-07-31T09:57:24;13.50;73.50
40023;DHT22;25713;-35.352;149.036;2023-07-31T09:59:55;13.50;72.90
40023;DHT22;25713;-35.352;149.036;2023-07-31T10:02:25;13.50;73.30
40023;DHT22;25713;-35.352;149.036;2023-07-31T10:04:57;13.40;72.60
40023;DHT22;25713;-35.352;149.036;2023-07-31T10:07:34;13.40;72.80
40023;DHT22;25713;-35.352;149.036;2023-07-31T10:10:06;13.30;72.70
40023;DHT22;25713;-35.352;149.036;2023-07-31T10:12:37;13.30;72.60
40023;DHT22;25713;-35.352;149.036;2023-07-31T10:15:07;13.30;73.20
40023;DHT22;25713;-35.352;149.036;2023-07-31T10:17:38;13.30;73.50
40023;DHT22;25713;-35.352;149.036;2023-07-31T10:20:09;13.30;73.90
40023;DHT22;25713;-35.352;149.036;2023-07-31T10:22:42;13.30;73.90
40023;DHT22;25713;-35.352;149.036;2023-07-31T10:25:12;13.40;74.00
40023;DHT22;25713;-35.352;149.036;2023-07-31T10:27:42;13.30;73.60
40023;DHT22;25713;-35.352;149.036;2023-07-31T10:30:14;13.30;73.40
40023;DHT22;25713;-35.352;149.036;2023-07-31T10:32:45;13.40;73.80
40023;DHT22;25713;-35.352;149.036;2023-07-31T10:35:16;13.30;74.20
40023;DHT22;25713;-35.352;149.036;2023-07-31T10:37:49;13.30;73.80
40023;DHT22;25713;-35.352;149.036;2023-07-31T10:40:19;13.30;74.00
40023;DHT22;25713;-35.352;149.036;2023-07-31T10:42:53;13.30;74.20
40023;DHT22;25713;-35.352;149.036;2023-07-31T10:45:30;13.30;73.40
40023;DHT22;25713;-35.352;149.036;2023-07-31T10:48:01;13.30;73.60
40023;DHT22;25713;-35.352;149.036;2023-07-31T10:50:32;13.30;74.20
40023;DHT22;25713;-35.352;149.036;2023-07-31T10:53:05;13.30;73.40
40023;DHT22;25713;-35.352;149.036;2023-07-31T10:55:38;13.30;73.30
40023;DHT22;25713;-35.352;149.036;2023-07-31T10:58:10;13.30;73.80
40023;DHT22;25713;-35.352;149.036;2023-07-31T11:00:42;13.20;73.70
40023;DHT22;25713;-35.352;149.036;2023-07-31T11:03:13;13.20;73.80
40023;DHT22;25713;-35.352;149.036;2023-07-31T11:05:45;13.20;74.40
40023;DHT22;25713;-35.352;149.036;2023-07-31T11:08:20;13.20;74.10
40023;DHT22;25713;-35.352;149.036;2023-07-31T11:11:05;13.20;73.70
40023;DHT22;25713;-35.352;149.036;2023-07-31T11:13:41;13.20;73.80
40023;DHT22;25713;-35.352;149.036;2023-07-31T11:16:12;13.20;73.90
40023;DHT22;25713;-35.352;149.036;2023-07-31T11:18:43;13.20;73.90
40023;DHT22;25713;-35.352;149.036;2023-07-31T11:21:14;13.20;73.50
40023;DHT22;25713;-35.352;149.036;2023-07-31T11:23:51;13.10;73.50
40023;DHT22;25713;-35.352;149.036;2023-07-31T11:26:22;13.10;74.00
40023;DHT22;25713;-35.352;149.036;2023-07-31T11:28:52;13.10;73.60
40023;DHT22;25713;-35.352;149.036;2023-07-31T11:31:22;13.10;73.70
40023;DHT22;25713;-35.352;149.036;2023-07-31T11:34:04;13.10;73.00
40023;DHT22;25713;-35.352;149.036;2023-07-31T11:36:33;13.10;73.70
40023;DHT22;25713;-35.352;149.036;2023-07-31T11:39:10;13.10;73.60
40023;DHT22;25713;-35.352;149.036;2023-07-31T11:41:42;13.10;74.20
40023;DHT22;25713;-35.352;149.036;2023-07-31T11:44:12;13.10;73.90
40023;DHT22;25713;-35.352;149.036;2023-07-31T11:46:41;13.00;73.30
40023;DHT22;25713;-35.352;149.036;2023-07-31T11:49:11;13.00;73.30
40023;DHT22;25713;-35.352;149.036;2023-07-31T11:51:41;13.00;74.00
40023;DHT22;25713;-35.352;149.036;2023-07-31T11:54:13;13.00;73.60
40023;DHT22;25713;-35.352;149.036;2023-07-31T11:56:43;13.00;73.90
40023;DHT22;25713;-35.352;149.036;2023-07-31T11:59:13;13.00;73.20
40023;DHT22;25713;-35.352;149.036;2023-07-31T12:01:42;13.00;73.10
40023;DHT22;25713;-35.352;149.036;2023-07-31T12:04:12;12.90;73.90
40023;DHT22;25713;-35.352;149.036;2023-07-31T12:06:42;13.00;74.20
40023;DHT22;25713;-35.352;149.036;2023-07-31T12:09:15;13.00;74.40
40023;DHT22;25713;-35.352;149.036;2023-07-31T12:11:45;13.00;74.10
40023;DHT22;25713;-35.352;149.036;2023-07-31T12:14:21;13.00;73.80
40023;DHT22;25713;-35.352;149.036;2023-07-31T12:16:55;13.00;73.50
40023;DHT22;25713;-35.352;149.036;2023-07-31T12:19:26;12.90;73.40
40023;DHT22;25713;-35.352;149.036;2023-07-31T12:21:56;12.90;74.00
40023;DHT22;25713;-35.352;149.036;2023-07-31T12:24:28;12.90;73.80
40023;DHT22;25713;-35.352;149.036;2023-07-31T12:26:57;12.90;74.00
40023;DHT22;25713;-35.352;149.036;2023-07-31T12:29:35;12.90;73.80
40023;DHT22;25713;-35.352;149.036;2023-07-31T12:32:05;12.90;74.30
40023;DHT22;25713;-35.352;149.036;2023-07-31T12:34:47;12.90;73.80
40023;DHT22;25713;-35.352;149.036;2023-07-31T12:37:16;12.80;74.40
40023;DHT22;25713;-35.352;149.036;2023-07-31T12:39:48;12.80;74.00
40023;DHT22;25713;-35.352;149.036;2023-07-31T12:42:23;12.80;74.10
40023;DHT22;25713;-35.352;149.036;2023-07-31T12:44:52;12.80;74.20
40023;DHT22;25713;-35.352;149.036;2023-07-31T12:47:22;12.80;74.50
40023;DHT22;25713;-35.352;149.036;2023-07-31T12:49:51;12.80;74.60
40023;DHT22;25713;-35.352;149.036;2023-07-31T12:52:21;12.80;74.80
40023;DHT22;25713;-35.352;149.036;2023-07-31T12:54:52;12.80;74.70
40023;DHT22;25713;-35.352;149.036;2023-07-31T12:57:22;12.80;74.20
40023;DHT22;25713;-35.352;149.036;2023-07-31T12:59:51;12.80;74.00
40023;DHT22;25713;-35.352;149.036;2023-07-31T13:02:21;12.80;74.20
40023;DHT22;25713;-35.352;149.036;2023-07-31T13:04:51;12.80;74.50
40023;DHT22;25713;-35.352;149.036;2023-07-31T13:07:20;12.80;74.50
40023;DHT22;25713;-35.352;149.036;2023-07-31T13:09:51;12.80;74.10
40023;DHT22;25713;-35.352;149.036;2023-07-31T13:12:21;12.70;74.10
40023;DHT22;25713;-35.352;149.036;2023-07-31T13:14:51;12.70;74.20
40023;DHT22;25713;-35.352;149.036;2023-07-31T13:17:20;12.70;74.80
40023;DHT22;25713;-35.352;149.036;2023-07-31T13:19:50;12.70;74.10
40023;DHT22;25713;-35.352;149.036;2023-07-31T13:22:19;12.70;74.20
40023;DHT22;25713;-35.352;149.036;2023-07-31T13:24:49;12.70;74.80
40023;DHT22;25713;-35.352;149.036;2023-07-31T13:27:20;12.70;74.60
40023;DHT22;25713;-35.352;149.036;2023-07-31T13:29:50;12.70;74.60
40023;DHT22;25713;-35.352;149.036;2023-07-31T13:32:20;12.70;74.60
40023;DHT22;25713;-35.352;149.036;2023-07-31T13:34:50;12.70;74.60
40023;DHT22;25713;-35.352;149.036;2023-07-31T13:37:19;12.70;74.80
40023;DHT22;25713;-35.352;149.036;2023-07-31T13:39:49;12.70;74.40
40023;DHT22;25713;-35.352;149.036;2023-07-31T13:42:20;12.70;74.60
40023;DHT22;25713;-35.352;149.036;2023-07-31T13:44:50;12.70;74.50
40023;DHT22;25713;-35.352;149.036;2023-07-31T13:47:19;12.70;74.20
40023;DHT22;25713;-35.352;149.036;2023-07-31T13:49:49;12.60;74.40
40023;DHT22;25713;-35.352;149.036;2023-07-31T13:52:18;12.60;75.00
40023;DHT22;25713;-35.352;149.036;2023-07-31T13:54:48;12.60;75.00
40023;DHT22;25713;-35.352;149.036;2023-07-31T13:57:19;12.60;75.30
40023;DHT22;25713;-35.352;149.036;2023-07-31T13:59:49;12.60;74.80
40023;DHT22;25713;-35.352;149.036;2023-07-31T14:02:18;12.60;75.00
40023;DHT22;25713;-35.352;149.036;2023-07-31T14:04:47;12.60;74.50
40023;DHT22;25713;-35.352;149.036;2023-07-31T14:07:17;12.60;75.10
40023;DHT22;25713;-35.352;149.036;2023-07-31T14:09:46;12.50;74.60
40023;DHT22;25713;-35.352;149.036;2023-07-31T14:12:16;12.40;76.10
40023;DHT22;25713;-35.352;149.036;2023-07-31T14:14:47;12.20;75.20
40023;DHT22;25713;-35.352;149.036;2023-07-31T14:17:17;12.20;76.40
40023;DHT22;25713;-35.352;149.036;2023-07-31T14:19:46;12.20;75.50
40023;DHT22;25713;-35.352;149.036;2023-07-31T14:22:20;12.30;75.40
40023;DHT22;25713;-35.352;149.036;2023-07-31T14:24:56;12.30;75.00
40023;DHT22;25713;-35.352;149.036;2023-07-31T14:27:25;12.20;75.40
40023;DHT22;25713;-35.352;149.036;2023-07-31T14:29:56;12.20;76.80
40023;DHT22;25713;-35.352;149.036;2023-07-31T14:32:26;12.20;76.20
40023;DHT22;25713;-35.352;149.036;2023-07-31T14:34:55;12.30;76.50
40023;DHT22;25713;-35.352;149.036;2023-07-31T14:37:27;12.20;75.40
40023;DHT22;25713;-35.352;149.036;2023-07-31T14:40:06;12.20;76.90
40023;DHT22;25713;-35.352;149.036;2023-07-31T14:42:35;12.20;76.10
40023;DHT22;25713;-35.352;149.036;2023-07-31T14:45:09;12.20;75.70
40023;DHT22;25713;-35.352;149.036;2023-07-31T15:49:53;11.90;76.40
40023;DHT22;25713;-35.352;149.036;2023-07-31T15:52:23;11.90;77.20
40023;DHT22;25713;-35.352;149.036;2023-07-31T15:54:53;11.80;79.40
40023;DHT22;25713;-35.352;149.036;2023-07-31T15:57:22;11.90;78.10
40023;DHT22;25713;-35.352;149.036;2023-07-31T15:59:52;11.90;77.70
40023;DHT22;25713;-35.352;149.036;2023-07-31T16:02:21;11.90;76.50
40023;DHT22;25713;-35.352;149.036;2023-07-31T16:04:52;12.00;76.60
40023;DHT22;25713;-35.352;149.036;2023-07-31T16:07:22;12.00;76.20
40023;DHT22;25713;-35.352;149.036;2023-07-31T16:09:51;12.00;76.20
40023;DHT22;25713;-35.352;149.036;2023-07-31T16:12:21;12.00;75.90
40023;DHT22;25713;-35.352;149.036;2023-07-31T16:14:50;12.10;75.90